createdAt,value
2024-02-14T00:00:42.461Z,94917.73
2024-02-14T00:03:09.518Z,94922.18
2024-02-14T00:05:36.468Z,94920.96
2024-02-14T00:08:04.594Z,94924.45
2024-02-14T00:10:31.529Z,94925.80
2024-02-14T00:12:58.467Z,94928.52
2024-02-14T00:15:26.938Z,94935.17
2024-02-14T00:17:54.697Z,94937.69
2024-02-14T00:20:23.017Z,94936.52
2024-02-14T00:22:55.832Z,94939.70
2024-02-14T00:25:22.756Z,94936.33
2024-02-14T00:27:49.703Z,94942.99
2024-02-14T00:30:17.160Z,94942.23
2024-02-14T00:32:44.487Z,94943.95
2024-02-14T00:35:11.745Z,94947.89
2024-02-14T00:37:39.107Z,94951.01
2024-02-14T00:40:07.091Z,94949.50
2024-02-14T00:42:34.947Z,94949.78
2024-02-14T00:45:02.088Z,94946.33
2024-02-14T00:47:29.138Z,94943.80
2024-02-14T00:49:56.026Z,94945.17
2024-02-14T00:52:23.051Z,94945.04
2024-02-14T00:54:52.727Z,94947.52
2024-02-14T00:57:20.497Z,94946.87
2024-02-14T00:59:47.782Z,94947.34
2024-02-14T01:02:20.004Z,94947.17
2024-02-14T01:04:46.940Z,94950.77
2024-02-14T01:07:13.780Z,94952.83
2024-02-14T01:09:40.709Z,94949.64
2024-02-14T01:12:08.157Z,94952.58
2024-02-14T01:14:35.493Z,94954.30
2024-02-14T01:17:02.457Z,94951.91
2024-02-14T01:19:30.466Z,94953.10
2024-02-14T01:22:00.350Z,94948.45
2024-02-14T01:24:31.771Z,94952.84
2024-02-14T01:27:01.367Z,94949.50
2024-02-14T01:29:28.992Z,94948.16
2024-02-14T01:31:57.029Z,94950.36
2024-02-14T01:34:25.342Z,94947.90
2024-02-14T01:36:52.468Z,94943.02
2024-02-14T01:39:19.837Z,94941.92
2024-02-14T01:41:49.797Z,94943.19
2024-02-14T01:44:17.905Z,94943.86
2024-02-14T01:46:45.658Z,94940.61
2024-02-14T01:49:15.933Z,94940.23
2024-02-14T01:51:46.354Z,94943.70
2024-02-14T01:54:16.313Z,94944.90
2024-02-14T01:56:44.158Z,94944.58
2024-02-14T01:59:11.225Z,94947.88
2024-02-14T02:01:38.159Z,94945.02
2024-02-14T02:04:07.945Z,94943.63
2024-02-14T02:06:35.265Z,94950.92
2024-02-14T02:09:02.672Z,94951.58
2024-02-14T02:11:29.916Z,94948.38
2024-02-14T02:14:01.969Z,94951.98
2024-02-14T02:16:28.890Z,94953.71
2024-02-14T02:18:56.003Z,94950.41
2024-02-14T02:21:25.117Z,94952.00
2024-02-14T02:23:52.530Z,94952.95
2024-02-14T02:26:22.467Z,94956.52
2024-02-14T02:28:49.475Z,94956.52
2024-02-14T02:31:16.673Z,94959.13
2024-02-14T02:33:44.513Z,94961.81
2024-02-14T02:36:12.533Z,94963.94
2024-02-14T02:38:39.751Z,94966.45
2024-02-14T02:41:14.363Z,94965.16
2024-02-14T02:43:41.335Z,94971.77
2024-02-14T02:46:10.861Z,94976.25
2024-02-14T02:48:47.986Z,94976.38
2024-02-14T02:51:17.924Z,94979.84
2024-02-14T02:53:45.062Z,94984.36
2024-02-14T02:56:16.159Z,94984.11
2024-02-14T02:58:44.898Z,94989.49
2024-02-14T03:01:14.764Z,94985.66
2024-02-14T03:03:42.554Z,94988.97
2024-02-14T03:06:10.203Z,94995.98
2024-02-14T03:08:37.284Z,94996.34
2024-02-14T03:11:08.093Z,94992.93
2024-02-14T03:13:37.094Z,94996.54
2024-02-14T03:16:05.567Z,95003.34
2024-02-14T03:18:35.069Z,95002.55
2024-02-14T03:21:02.468Z,95005.61
2024-02-14T03:23:29.646Z,95010.05
2024-02-14T03:25:56.709Z,95012.16
2024-02-14T03:28:24.650Z,95019.39
2024-02-14T03:30:54.577Z,95023.19
2024-02-14T03:33:21.626Z,95025.55
2024-02-14T03:35:49.077Z,95031.09
2024-02-14T03:38:26.744Z,95030.96
2024-02-14T03:40:53.855Z,95034.52
2024-02-14T03:43:21.022Z,95034.00
2024-02-14T03:45:48.000Z,95038.26
2024-02-14T03:48:18.389Z,95044.20
2024-02-14T03:50:45.580Z,95048.14
2024-02-14T03:53:12.664Z,95049.48
2024-02-14T03:55:39.667Z,95050.10
2024-02-14T03:58:07.640Z,95047.41
2024-02-14T04:00:36.591Z,95045.87
2024-02-14T04:03:04.068Z,95042.61
2024-02-14T04:05:33.882Z,95042.23
2024-02-14T04:08:00.889Z,95043.92
2024-02-14T04:10:30.855Z,95046.29
2024-02-14T04:12:57.614Z,95048.55
2024-02-14T04:15:24.622Z,95055.71
2024-02-14T04:17:54.544Z,95054.21
2024-02-14T04:20:21.661Z,95059.73
2024-02-14T04:22:48.481Z,95063.11
2024-02-14T04:25:15.541Z,95062.92
2024-02-14T04:27:42.835Z,95067.27
2024-02-14T04:30:10.477Z,95064.09
2024-02-14T04:32:37.904Z,95069.55
2024-02-14T04:35:05.333Z,95070.88
2024-02-14T04:37:32.451Z,95073.98
2024-02-14T04:40:00.313Z,95074.84
2024-02-14T04:42:27.201Z,95078.46
2024-02-14T04:44:57.342Z,95086.02
2024-02-14T04:47:24.388Z,95084.13
2024-02-14T04:49:52.817Z,95086.08
2024-02-14T04:52:20.034Z,95090.52
2024-02-14T04:54:46.990Z,95095.46
2024-02-14T04:57:14.007Z,95097.02
2024-02-14T04:59:40.971Z,95098.42
2024-02-14T05:02:12.078Z,95103.36
2024-02-14T05:04:42.171Z,95107.38
2024-02-14T05:07:09.858Z,95108.73
2024-02-14T05:09:36.792Z,95114.00
2024-02-14T05:12:05.172Z,95112.66
2024-02-14T05:14:32.721Z,95117.31
2024-02-14T05:17:02.827Z,95119.55
2024-02-14T05:19:31.200Z,95123.97
2024-02-14T05:21:58.544Z,95129.46
2024-02-14T05:24:28.777Z,95128.96
2024-02-14T05:26:55.996Z,95132.31
2024-02-14T05:29:23.654Z,95133.39
2024-02-14T05:31:50.910Z,95135.85
2024-02-14T05:34:18.021Z,95138.04
2024-02-14T05:36:47.473Z,95144.85
2024-02-14T05:39:17.925Z,95146.22
2024-02-14T05:41:45.069Z,95151.81
2024-02-14T05:44:12.124Z,95158.54
2024-02-14T05:46:39.004Z,95160.90
2024-02-14T05:49:05.946Z,95166.70
2024-02-14T05:51:33.022Z,95169.48
2024-02-14T05:54:01.381Z,95172.18
2024-02-14T05:56:28.517Z,95174.73
2024-02-14T05:58:55.614Z,95177.25
2024-02-14T06:01:22.706Z,95179.86
2024-02-14T06:03:49.852Z,95182.51
2024-02-14T06:06:19.269Z,95183.84
2024-02-14T06:08:46.356Z,95187.84
2024-02-14T06:11:15.428Z,95190.47
2024-02-14T06:13:43.764Z,95191.91
2024-02-14T06:16:12.872Z,95199.38
2024-02-14T06:18:41.149Z,95200.75
2024-02-14T06:21:08.647Z,95203.97
2024-02-14T06:23:35.852Z,95203.20
2024-02-14T06:26:03.024Z,95206.27
2024-02-14T06:28:30.020Z,95213.33
2024-02-14T06:30:57.122Z,95218.71
2024-02-14T06:33:26.832Z,95220.34
2024-02-14T06:35:56.033Z,95220.24
2024-02-14T06:38:23.292Z,95219.77
2024-02-14T06:40:50.705Z,95224.33
2024-02-14T06:43:17.744Z,95225.77
2024-02-14T06:45:45.007Z,95228.01
2024-02-14T06:48:12.113Z,95233.33
2024-02-14T06:50:39.888Z,95233.46
2024-02-14T06:53:07.999Z,95231.98
2024-02-14T06:55:34.950Z,95236.16
2024-02-14T06:58:02.711Z,95238.44
2024-02-14T07:00:29.889Z,95243.29
2024-02-14T07:02:57.197Z,95241.94
2024-02-14T07:05:24.421Z,95246.11
2024-02-14T07:07:51.418Z,95252.45
2024-02-14T07:10:18.480Z,95256.17
2024-02-14T07:12:45.644Z,95260.39
2024-02-14T07:15:12.622Z,95262.85
2024-02-14T07:17:42.167Z,95270.73
2024-02-14T07:20:10.516Z,95276.00
2024-02-14T07:22:37.823Z,95279.59
2024-02-14T07:25:06.356Z,95283.53
2024-02-14T07:27:36.683Z,95280.95
2024-02-14T07:30:04.249Z,95278.77
2024-02-14T07:32:31.402Z,95281.36
2024-02-14T07:34:58.390Z,95282.13
2024-02-14T07:37:26.307Z,95285.77
2024-02-14T07:39:53.525Z,95286.41
2024-02-14T07:42:20.568Z,95287.60
2024-02-14T07:44:47.452Z,95291.63
2024-02-14T07:47:14.499Z,95287.92
2024-02-14T07:49:42.502Z,95290.87
2024-02-14T07:52:09.494Z,95285.77
2024-02-14T07:54:37.043Z,95286.27
2024-02-14T07:57:05.101Z,95290.78
2024-02-14T07:59:32.440Z,95294.98
2024-02-14T08:01:59.495Z,95295.39
2024-02-14T08:04:26.858Z,95297.98
2024-02-14T08:06:54.039Z,95303.42
2024-02-14T08:09:24.262Z,95300.13
2024-02-14T08:11:54.509Z,95298.69
2024-02-14T08:14:23.904Z,95295.76
2024-02-14T08:16:50.861Z,95295.85
2024-02-14T08:19:18.009Z,95301.31
2024-02-14T08:21:46.331Z,95301.55
2024-02-14T08:24:16.081Z,95304.02
2024-02-14T08:26:43.646Z,95306.21
2024-02-14T08:29:12.792Z,95310.36
2024-02-14T08:31:40.061Z,95310.48
2024-02-14T08:34:11.747Z,95314.51
2024-02-14T08:36:42.818Z,95318.12
2024-02-14T08:39:11.237Z,95316.22
2024-02-14T08:41:46.265Z,95319.39
2024-02-14T08:44:14.098Z,95318.27
2024-02-14T08:46:43.711Z,95325.14
2024-02-14T08:49:12.428Z,95335.21
2024-02-14T08:51:40.055Z,95333.85
2024-02-14T08:54:07.585Z,95333.91
2024-02-14T08:56:35.225Z,95339.23
2024-02-14T08:59:08.109Z,95343.96
2024-02-14T09:01:37.604Z,95347.51
2024-02-14T09:04:04.792Z,95356.10
2024-02-14T09:06:34.055Z,95356.02
2024-02-14T09:09:02.337Z,95356.48
2024-02-14T09:11:29.521Z,95358.55
2024-02-14T09:14:00.679Z,95359.91
2024-02-14T09:16:30.285Z,95360.07
2024-02-14T09:18:59.465Z,95364.82
2024-02-14T09:21:29.191Z,95360.91
2024-02-14T09:23:56.603Z,95363.02
2024-02-14T09:26:23.765Z,95366.60
2024-02-14T09:28:53.512Z,95372.66
2024-02-14T09:31:23.479Z,95370.59
2024-02-14T09:33:50.823Z,95376.08
2024-02-14T09:36:18.497Z,95377.27
2024-02-14T09:38:48.239Z,95374.07
2024-02-14T09:41:24.800Z,95372.55
2024-02-14T09:43:54.032Z,95370.83
2024-02-14T09:46:25.422Z,95369.38
2024-02-14T09:48:53.959Z,95371.31
2024-02-14T09:51:34.431Z,95374.88
2024-02-14T09:54:02.973Z,95372.39
2024-02-14T09:56:35.460Z,95370.52
2024-02-14T09:59:04.175Z,95367.98
2024-02-14T10:01:31.387Z,95364.15
2024-02-14T10:04:00.801Z,95361.30
2024-02-14T10:06:28.011Z,95363.64
2024-02-14T10:09:03.467Z,95360.92
2024-02-14T10:11:35.288Z,95359.04
2024-02-14T10:14:05.303Z,95358.11
2024-02-14T10:16:33.053Z,95359.84
2024-02-14T10:19:00.516Z,95358.52
2024-02-14T10:21:34.738Z,95359.08
2024-02-14T10:24:10.683Z,95359.66
2024-02-14T10:26:39.139Z,95357.88
2024-02-14T10:29:16.677Z,95354.88
2024-02-14T10:31:47.268Z,95355.98
2024-02-14T10:34:15.664Z,95355.04
2024-02-14T10:36:48.594Z,95351.23
2024-02-14T10:39:22.782Z,95347.64
2024-02-14T10:41:54.818Z,95350.19
2024-02-14T10:44:46.516Z,95351.20
2024-02-14T10:47:25.251Z,95346.98
2024-02-14T10:50:06.386Z,95349.52
2024-02-14T10:52:36.845Z,95352.45
2024-02-14T10:55:19.452Z,95348.60
2024-02-14T10:57:50.389Z,95353.70
2024-02-14T11:00:26.073Z,95354.91
2024-02-14T11:02:59.962Z,95355.62
2024-02-14T11:05:29.437Z,95357.97
2024-02-14T11:11:04.723Z,95359.15
2024-02-14T11:13:36.296Z,95359.19
2024-02-14T11:16:13.874Z,95357.25
2024-02-14T11:21:46.815Z,95358.31
2024-02-14T11:24:25.950Z,95354.80
2024-02-14T11:27:03.581Z,95357.05
2024-02-14T11:29:36.586Z,95357.16
2024-02-14T11:32:12.785Z,95352.09
2024-02-14T11:35:00.665Z,95354.48
2024-02-14T11:37:33.894Z,95356.73
2024-02-14T11:40:02.261Z,95355.38
2024-02-14T11:42:29.509Z,95355.52
2024-02-14T11:45:02.654Z,95356.48
2024-02-14T11:47:34.346Z,95356.66
2024-02-14T11:50:01.853Z,95357.30
2024-02-14T11:52:28.767Z,95356.83
2024-02-14T11:54:57.794Z,95356.46
2024-02-14T11:57:24.683Z,95353.39
2024-02-14T11:59:54.300Z,95356.04
2024-02-14T12:02:22.444Z,95353.41
2024-02-14T12:04:55.167Z,95350.21
2024-02-14T12:07:31.103Z,95346.63
2024-02-14T12:10:01.136Z,95347.08
2024-02-14T12:12:38.996Z,95349.58
2024-02-14T12:15:19.179Z,95349.25
2024-02-14T12:17:49.513Z,95348.06
2024-02-14T12:20:17.570Z,95348.98
2024-02-14T12:23:11.002Z,95345.15
2024-02-14T12:25:38.056Z,95345.61
2024-02-14T12:28:07.485Z,95340.00
2024-02-14T12:30:46.854Z,95340.66
2024-02-14T12:33:15.288Z,95340.14
2024-02-14T12:35:48.424Z,95341.24
2024-02-14T12:38:18.406Z,95340.16
2024-02-14T12:40:45.929Z,95341.19
2024-02-14T12:43:14.457Z,95340.25
2024-02-14T12:45:45.223Z,95338.61
2024-02-14T12:48:15.217Z,95338.71
2024-02-14T12:50:49.841Z,95340.08
2024-02-14T12:53:16.898Z,95343.64
2024-02-14T12:55:44.097Z,95340.15
2024-02-14T12:58:11.471Z,95342.38
2024-02-14T13:00:39.459Z,95340.90
2024-02-14T13:03:06.758Z,95342.91
2024-02-14T13:05:35.322Z,95346.66
2024-02-14T13:08:02.497Z,95349.02
2024-02-14T13:10:30.478Z,95346.64
2024-02-14T13:13:01.156Z,95351.16
2024-02-14T13:15:29.218Z,95352.79
2024-02-14T13:17:59.599Z,95351.44
2024-02-14T13:20:30.223Z,95356.39
2024-02-14T13:23:00.144Z,95357.52
2024-02-14T13:25:27.296Z,95354.33
2024-02-14T13:27:55.543Z,95354.98
2024-02-14T13:30:24.008Z,95356.83
2024-02-14T13:32:53.615Z,95358.71
2024-02-14T13:35:24.009Z,95355.87
2024-02-14T13:37:50.990Z,95356.52
2024-02-14T13:40:18.337Z,95357.23
2024-02-14T13:42:45.370Z,95354.47
2024-02-14T13:45:13.107Z,95356.31
2024-02-14T13:47:40.686Z,95349.19
2024-02-14T13:50:10.765Z,95356.47
2024-02-14T13:52:40.250Z,95354.89
2024-02-14T13:55:10.135Z,95350.17
2024-02-14T13:57:40.440Z,95356.00
2024-02-14T14:00:13.161Z,95358.17
2024-02-14T14:02:43.459Z,95363.61
2024-02-14T14:05:12.055Z,95365.35
2024-02-14T14:07:53.630Z,95365.80
2024-02-14T14:10:29.293Z,95364.13
2024-02-14T14:12:56.982Z,95363.77
2024-02-14T14:15:24.664Z,95366.98
2024-02-14T14:17:52.658Z,95367.80
2024-02-14T14:20:20.841Z,95369.41
2024-02-14T14:22:48.215Z,95365.13
2024-02-14T14:25:15.270Z,95366.77
2024-02-14T14:27:43.962Z,95366.02
2024-02-14T14:30:13.011Z,95366.74
2024-02-14T14:32:41.746Z,95371.05
2024-02-14T14:35:12.394Z,95370.34
2024-02-14T14:37:40.015Z,95379.27
2024-02-14T14:40:09.866Z,95382.27
2024-02-14T14:42:38.216Z,95387.70
2024-02-14T14:45:06.513Z,95389.48
2024-02-14T14:47:37.290Z,95393.27
2024-02-14T14:50:08.777Z,95394.87
2024-02-14T14:53:00.399Z,95393.48
2024-02-14T14:56:05.200Z,95396.73
2024-02-14T14:58:52.461Z,95397.08
2024-02-14T15:01:33.786Z,95397.59
2024-02-14T15:04:10.765Z,95402.14
2024-02-14T15:06:47.364Z,95403.74
2024-02-14T15:09:16.443Z,95401.92
2024-02-14T15:11:50.711Z,95405.73
2024-02-14T15:14:19.406Z,95406.55
2024-02-14T15:16:50.322Z,95406.11
2024-02-14T15:22:04.556Z,95407.44
2024-02-14T15:24:38.745Z,95409.07
2024-02-14T15:27:15.240Z,95408.45
2024-02-14T15:30:02.258Z,95411.46
2024-02-14T15:32:48.059Z,95414.67
2024-02-14T15:35:18.114Z,95418.38
2024-02-14T15:37:53.928Z,95422.15
2024-02-14T15:40:21.650Z,95429.03
2024-02-14T15:42:51.589Z,95424.98
2024-02-14T15:45:19.049Z,95433.45
2024-02-14T15:47:47.094Z,95435.29
2024-02-14T15:50:14.244Z,95436.73
2024-02-14T15:52:41.804Z,95440.17
2024-02-14T15:55:09.653Z,95444.84
2024-02-14T15:57:37.034Z,95445.11
2024-02-14T16:00:11.772Z,95452.16
2024-02-14T16:02:41.669Z,95457.23
2024-02-14T16:05:11.447Z,95464.98
2024-02-14T16:07:38.612Z,95468.88
2024-02-14T16:10:06.476Z,95476.89
2024-02-14T16:12:33.520Z,95475.40
2024-02-14T16:15:00.420Z,95480.60
2024-02-14T16:17:30.186Z,95483.73
2024-02-14T16:20:01.175Z,95484.80
2024-02-14T16:22:28.217Z,95488.02
2024-02-14T16:24:59.677Z,95489.29
2024-02-14T16:27:26.673Z,95493.87
2024-02-14T16:29:56.088Z,95498.09
2024-02-14T16:32:23.162Z,95505.52
2024-02-14T16:34:50.266Z,95513.04
2024-02-14T16:37:23.318Z,95513.21
2024-02-14T16:39:51.002Z,95515.89
2024-02-14T16:42:23.768Z,95517.20
2024-02-14T16:44:50.938Z,95517.25
2024-02-14T16:47:18.130Z,95524.38
2024-02-14T16:49:45.257Z,95523.73
2024-02-14T16:52:13.720Z,95525.38
2024-02-14T16:54:40.621Z,95527.63
2024-02-14T16:57:11.156Z,95528.73
2024-02-14T16:59:47.213Z,95530.33
2024-02-14T17:02:14.907Z,95532.85
2024-02-14T17:04:42.467Z,95532.41
2024-02-14T17:07:12.616Z,95535.96
2024-02-14T17:09:39.869Z,95538.30
2024-02-14T17:12:12.666Z,95540.12
2024-02-14T17:14:44.202Z,95540.63
2024-02-14T17:17:12.925Z,95537.52
2024-02-14T17:19:49.206Z,95546.21
2024-02-14T17:22:49.287Z,95547.23
2024-02-14T17:25:22.960Z,95543.20
2024-02-14T17:27:52.829Z,95544.59
2024-02-14T17:30:31.990Z,95546.24
2024-02-14T17:33:03.821Z,95551.79
2024-02-14T17:35:40.025Z,95551.66
2024-02-14T17:38:10.554Z,95556.26
2024-02-14T17:40:37.563Z,95553.59
2024-02-14T17:43:04.738Z,95556.61
2024-02-14T17:45:34.815Z,95557.36
2024-02-14T17:48:11.198Z,95553.98
2024-02-14T17:50:42.251Z,95550.03
2024-02-14T17:53:13.245Z,95550.62
2024-02-14T17:55:52.209Z,95549.55
2024-02-14T17:58:22.194Z,95543.99
2024-02-14T18:00:53.830Z,95545.30
2024-02-14T18:03:36.850Z,95549.27
2024-02-14T18:06:10.106Z,95552.17
2024-02-14T18:08:37.599Z,95556.21
2024-02-14T18:11:10.136Z,95558.54
2024-02-14T18:13:39.655Z,95560.88
2024-02-14T18:16:10.012Z,95564.18
2024-02-14T18:18:42.616Z,95562.04
2024-02-14T18:21:13.477Z,95560.39
2024-02-14T18:23:51.170Z,95560.54
2024-02-14T18:26:29.160Z,95557.30
2024-02-14T18:28:56.457Z,95559.08
2024-02-14T18:31:23.516Z,95562.63
2024-02-14T18:33:51.168Z,95562.86
2024-02-14T18:36:19.250Z,95569.20
2024-02-14T18:38:59.837Z,95566.40
2024-02-14T18:41:41.194Z,95566.23
2024-02-14T18:44:21.925Z,95570.54
2024-02-14T18:46:57.624Z,95573.58
2024-02-14T18:49:25.477Z,95572.61
2024-02-14T18:51:55.177Z,95576.46
2024-02-14T18:54:30.215Z,95573.65
2024-02-14T18:56:57.248Z,95576.79
2024-02-14T18:59:24.341Z,95581.96
2024-02-14T19:01:51.584Z,95577.48
2024-02-14T19:04:20.168Z,95576.62
2024-02-14T19:07:06.379Z,95578.82
2024-02-14T19:09:34.411Z,95579.52
2024-02-14T19:12:14.536Z,95578.65
2024-02-14T19:14:53.196Z,95584.54
2024-02-14T19:17:20.094Z,95585.25
2024-02-14T19:19:50.172Z,95590.05
2024-02-14T19:22:17.157Z,95594.00
2024-02-14T19:24:46.503Z,95596.84
2024-02-14T19:27:21.722Z,95599.41
2024-02-14T19:29:58.806Z,95601.64
2024-02-14T19:32:42.236Z,95602.34
2024-02-14T19:35:18.823Z,95600.89
2024-02-14T19:37:59.098Z,95598.55
2024-02-14T19:40:41.621Z,95599.98
2024-02-14T19:43:10.666Z,95599.23
2024-02-14T19:45:48.821Z,95596.48
2024-02-14T19:48:16.384Z,95593.96
2024-02-14T19:50:44.775Z,95591.69
2024-02-14T19:53:12.355Z,95589.90
2024-02-14T19:55:39.335Z,95586.62
2024-02-14T19:58:09.331Z,95589.23
2024-02-14T20:00:36.259Z,95593.50
2024-02-14T20:03:03.406Z,95593.15
2024-02-14T20:05:36.633Z,95593.87
2024-02-14T20:08:10.321Z,95594.55
2024-02-14T20:10:37.448Z,95593.68
2024-02-14T20:13:19.713Z,95593.16
2024-02-14T20:15:49.734Z,95591.29
2024-02-14T20:18:17.459Z,95587.77
2024-02-14T20:20:48.616Z,95591.79
2024-02-14T20:23:15.711Z,95589.08
2024-02-14T20:25:45.612Z,95590.95
2024-02-14T20:28:14.784Z,95589.42
2024-02-14T20:30:44.584Z,95590.54
2024-02-14T20:33:15.073Z,95590.26
2024-02-14T20:35:42.497Z,95590.51
2024-02-14T20:38:12.228Z,95589.39
2024-02-14T20:40:39.321Z,95586.39
2024-02-14T20:43:08.484Z,95586.81
2024-02-14T20:45:40.820Z,95589.84
2024-02-14T20:48:10.621Z,95586.55
2024-02-14T20:50:40.371Z,95586.53
2024-02-14T20:53:10.295Z,95585.21
2024-02-14T20:55:40.221Z,95583.73
2024-02-14T20:58:07.926Z,95587.84
2024-02-14T21:00:36.000Z,95589.40
2024-02-14T21:03:03.373Z,95590.02
2024-02-14T21:05:33.334Z,95596.77
2024-02-14T21:08:00.310Z,95597.12
2024-02-14T21:10:29.852Z,95601.27
2024-02-14T21:12:57.223Z,95601.29
2024-02-14T21:15:26.638Z,95597.67
2024-02-14T21:17:54.049Z,95597.54
2024-02-14T21:20:24.239Z,95596.00
2024-02-14T21:22:51.320Z,95602.81
2024-02-14T21:25:21.288Z,95603.95
2024-02-14T21:27:48.502Z,95604.83
2024-02-14T21:30:15.705Z,95603.77
2024-02-14T21:32:44.395Z,95608.71
2024-02-14T21:35:14.119Z,95612.97
2024-02-14T21:37:43.635Z,95611.98
2024-02-14T21:40:12.413Z,95613.43
2024-02-14T21:42:40.765Z,95611.06
2024-02-14T21:45:08.582Z,95611.26
2024-02-14T21:47:38.499Z,95607.10
2024-02-14T21:50:06.382Z,95609.30
2024-02-14T21:52:34.573Z,95604.42
2024-02-14T21:55:05.233Z,95604.92
2024-02-14T21:57:32.094Z,95601.90
2024-02-14T22:00:09.330Z,95604.98
2024-02-14T22:02:45.104Z,95605.88
2024-02-14T22:05:13.231Z,95603.27
2024-02-14T22:07:40.518Z,95603.85
2024-02-14T22:10:12.031Z,95607.00
2024-02-14T22:12:39.246Z,95608.33
2024-02-14T22:15:09.487Z,95606.73
2024-02-14T22:17:39.005Z,95605.26
2024-02-14T22:20:07.280Z,95608.30
2024-02-14T22:22:37.106Z,95610.09
2024-02-14T22:25:07.934Z,95613.09
2024-02-14T22:27:36.695Z,95614.27
2024-02-14T22:30:08.326Z,95613.13
2024-02-14T22:32:35.717Z,95616.48
2024-02-14T22:35:06.071Z,95619.04
2024-02-14T22:37:33.499Z,95613.86
2024-02-14T22:40:00.974Z,95613.65
2024-02-14T22:42:27.985Z,95615.11
2024-02-14T22:44:55.779Z,95614.62
2024-02-14T22:47:25.181Z,95618.49
2024-02-14T22:49:54.310Z,95613.23
2024-02-14T22:52:22.310Z,95611.48
2024-02-14T22:54:49.622Z,95609.60
2024-02-14T22:57:19.614Z,95607.89
2024-02-14T22:59:46.631Z,95609.34
2024-02-14T23:02:15.091Z,95611.38
2024-02-14T23:04:44.791Z,95608.98
2024-02-14T23:07:12.966Z,95607.62
2024-02-14T23:09:39.977Z,95608.23
2024-02-14T23:12:09.254Z,95608.71
2024-02-14T23:14:36.231Z,95608.94
2024-02-14T23:17:04.908Z,95612.23
2024-02-14T23:19:33.289Z,95612.51
2024-02-14T23:22:00.382Z,95616.03
2024-02-14T23:24:28.747Z,95609.47
2024-02-14T23:26:59.198Z,95613.27
2024-02-14T23:29:26.539Z,95612.33
2024-02-14T23:31:53.334Z,95612.51
2024-02-14T23:34:20.538Z,95614.27
2024-02-14T23:36:47.610Z,95608.00
2024-02-14T23:39:14.720Z,95607.84
2024-02-14T23:41:41.792Z,95608.85
2024-02-14T23:44:10.293Z,95607.39
2024-02-14T23:46:37.879Z,95609.11
2024-02-14T23:49:07.192Z,95613.33
2024-02-14T23:51:34.325Z,95614.36
2024-02-14T23:54:07.686Z,95615.81
2024-02-14T23:56:34.602Z,95616.70
2024-02-14T23:59:01.624Z,95618.02
